Airfield :
LOGIN :

Register | Disclaimer

   EN    FR    IT 

 










Legend :    VFR   Marginal VFR   IFR   Intensive IFR   Very Intensive IFR
Visi :
Ceiling :
>= 8 km
>= 3000ft
5 to 8 km
1000 to 3000 ft
1500m to 5 km
500 to 1000 ft
800 to 1500m
200 to 500 ft
< 800m
< 200 ft
Symbols :   Thunderstorms  Fog  Heavy snow  Heavy precipitations  Wind > 20 kt
SIGMETs :     Misc.  Thunderstorms  Icing  Turbulence  Mountain Waves  Volcanic Ashes






- Airport Elevation : 12 ft
- IATA code : NCE


LFMN - Nice

CURRENT METAR :
  • 290930Z VRB03KT CAVOK 14/03 Q1024 NOSIG

EXPIRED METARs :
  • 290900Z VRB02KT CAVOK 14/03 Q1024 NOSIG
  • 290830Z 33004KT 290V020 CAVOK 13/M00 Q1024 BECMG 12008KT
  • 290800Z 33006KT CAVOK 11/M01 Q1024 BECMG 12008KT
  • 290730Z 33010KT CAVOK 10/M02 Q1024 BECMG 12008KT
  • 290700Z 33009KT CAVOK 09/M02 Q1024 NOSIG

TAF TAF LFMN
Valid from the 29 at 09:00 until the 30 at 15:00 UTC


290800Z 2909/3015 12008KT CAVOK
PROB30
TEMPO 2913/2917 18010KT
TEMPO 2918/2922 32010KT
BECMG 2922/2924 33010KT
PROB40
TEMPO 2922/3007 BKN014
BECMG 3007/3009 20010KT
ATIS : +33 4 93 17 21 16



MET'MAP, your aeronautical weather chart ! - Copyright ORBIFLY December 2007 - Disclaimer

ORBIFLY MET'MAP TEAM :

Programming & Development : Alexandra Zaïnal
Original concept : Baudouin d'Aumeries
Technical & hardware support : Manuel Goepfert
Assistance : Marc-Olivier Méhu




SOURCES & CREDITS :

   NOAA